Time;durP1;ratioP1;P1;durP2;ratioP2;P2;SDS_P1;SDS_P2;PMS_P1;PMS_P2;Temp;Humidity;BMP_temperature;BMP_pressure;BME280_temperature;BME280_humidity;BME280_pressure;Samples;Min_cycle;Max_cycle;Signal;HPM_P1;HPM_P2
2023/05/22 00:00:08;;;;;;;20.95;16.60;;;;;;;;;;5034983;28;20045;-70
2023/05/22 00:02:42;;;;;;;22.45;16.60;;;;;;;;;;5041386;28;20049;-70
2023/05/22 00:05:09;;;;;;;21.27;16.60;;;;;;;;;;5055682;28;20054;-70
2023/05/22 00:07:35;;;;;;;25.17;17.85;;;;;;;;;;5055742;28;20059;-70
2023/05/22 00:10:01;;;;;;;22.13;16.85;;;;;;;;;;5055437;28;20045;-70
2023/05/22 00:12:27;;;;;;;22.83;16.55;;;;;;;;;;5055198;28;20045;-70
2023/05/22 00:14:53;;;;;;;21.38;16.55;;;;;;;;;;5054891;28;20090;-70
2023/05/22 00:17:19;;;;;;;23.45;17.08;;;;;;;;;;5035056;28;20086;-70
2023/05/22 00:19:46;;;;;;;22.60;18.35;;;;;;;;;;5034553;28;20037;-70
2023/05/22 00:22:12;;;;;;;24.75;17.92;;;;;;;;;;5034479;28;20427;-70
2023/05/22 00:24:38;;;;;;;20.98;18.20;;;;;;;;;;5034672;28;20084;-70
2023/05/22 00:27:04;;;;;;;25.35;19.10;;;;;;;;;;5015991;28;20056;-70
2023/05/22 00:29:30;;;;;;;24.67;18.88;;;;;;;;;;5034230;28;20081;-70
2023/05/22 00:31:56;;;;;;;22.00;17.73;;;;;;;;;;5033402;28;20461;-70
2023/05/22 00:34:22;;;;;;;20.23;17.58;;;;;;;;;;5034370;28;20095;-70
2023/05/22 00:36:48;;;;;;;25.23;18.63;;;;;;;;;;5034408;28;20444;-70
2023/05/22 00:39:14;;;;;;;24.30;18.88;;;;;;;;;;5015977;28;20110;-69
2023/05/22 00:41:40;;;;;;;26.27;18.75;;;;;;;;;;5034394;28;20037;-70
2023/05/22 00:44:06;;;;;;;22.55;18.58;;;;;;;;;;5015806;28;20187;-70
2023/05/22 00:46:32;;;;;;;25.80;17.85;;;;;;;;;;5016077;28;20037;-70
2023/05/22 00:48:58;;;;;;;23.77;18.67;;;;;;;;;;5034027;28;20480;-69
2023/05/22 00:51:25;;;;;;;23.20;19.77;;;;;;;;;;5034225;28;20053;-70
2023/05/22 00:53:52;;;;;;;24.95;18.88;;;;;;;;;;5034523;28;20426;-70
2023/05/22 00:56:18;;;;;;;23.92;18.40;;;;;;;;;;5033733;28;20057;-69
2023/05/22 00:58:44;;;;;;;24.52;18.45;;;;;;;;;;5032289;28;20085;-70
2023/05/22 01:01:10;;;;;;;22.85;18.95;;;;;;;;;;5033240;28;20077;-70
2023/05/22 01:03:41;;;;;;;22.25;18.58;;;;;;;;;;5033848;28;20046;-70
2023/05/22 01:06:07;;;;;;;23.67;19.65;;;;;;;;;;5033816;28;20041;-69
2023/05/22 01:08:33;;;;;;;22.13;18.85;;;;;;;;;;5033975;28;20057;-70
2023/05/22 01:11:21;;;;;;;29.50;19.65;;;;;;;;;;5015768;28;20126;-71
2023/05/22 01:14:02;;;;;;;24.13;18.38;;;;;;;;;;5032475;28;20045;-69
2023/05/22 01:16:31;;;;;;;24.58;19.27;;;;;;;;;;5033518;28;20045;-69
2023/05/22 01:19:03;;;;;;;22.42;18.85;;;;;;;;;;5033304;28;20044;-69
2023/05/22 01:21:38;;;;;;;24.42;18.80;;;;;;;;;;5033435;28;20041;-70
2023/05/22 01:24:16;;;;;;;25.02;18.63;;;;;;;;;;5033251;28;20128;-70
2023/05/22 01:27:02;;;;;;;22.38;18.15;;;;;;;;;;5033242;28;20328;-70
2023/05/22 01:29:28;;;;;;;23.45;18.95;;;;;;;;;;5033199;28;20465;-70
2023/05/22 01:31:55;;;;;;;21.73;17.85;;;;;;;;;;5033322;28;20116;-70
2023/05/22 01:34:21;;;;;;;22.02;18.05;;;;;;;;;;5033531;28;20115;-70
2023/05/22 01:36:48;;;;;;;26.38;19.45;;;;;;;;;;5033189;28;20072;-70
2023/05/22 01:39:14;;;;;;;24.83;19.10;;;;;;;;;;5015510;28;20053;-70
2023/05/22 01:41:40;;;;;;;24.20;19.58;;;;;;;;;;5033267;28;20045;-70
2023/05/22 01:44:06;;;;;;;23.80;18.67;;;;;;;;;;5032661;28;20053;-70
2023/05/22 01:46:32;;;;;;;22.80;19.20;;;;;;;;;;5032609;28;20041;-70
2023/05/22 01:48:59;;;;;;;23.77;18.80;;;;;;;;;;5032597;28;20533;-69
2023/05/22 01:51:31;;;;;;;23.70;18.98;;;;;;;;;;5032476;28;20049;-70
2023/05/22 01:54:04;;;;;;;25.27;19.40;;;;;;;;;;5032957;28;20065;-70
2023/05/22 01:56:38;;;;;;;25.13;19.48;;;;;;;;;;5032920;28;20116;-69
2023/05/22 01:59:20;;;;;;;22.15;18.13;;;;;;;;;;5015237;28;20136;-70
2023/05/22 02:01:48;;;;;;;29.23;18.33;;;;;;;;;;5032400;28;20125;-70
2023/05/22 02:04:15;;;;;;;25.02;19.05;;;;;;;;;;5032339;28;20053;-70
2023/05/22 02:06:42;;;;;;;23.08;19.40;;;;;;;;;;5031063;28;20049;-70
2023/05/22 02:09:08;;;;;;;26.55;18.58;;;;;;;;;;5030435;28;20430;-70
2023/05/22 02:11:34;;;;;;;24.25;19.88;;;;;;;;;;5030491;28;20049;-70
2023/05/22 02:14:01;;;;;;;20.73;18.13;;;;;;;;;;5032598;28;20041;-69
2023/05/22 02:16:29;;;;;;;22.52;18.50;;;;;;;;;;5032018;28;20049;-69
2023/05/22 02:19:04;;;;;;;22.30;18.13;;;;;;;;;;5012907;28;20072;-70
2023/05/22 02:21:32;;;;;;;22.98;18.63;;;;;;;;;;5028455;28;20107;-70
2023/05/22 02:23:58;;;;;;;21.75;18.90;;;;;;;;;;5014726;28;20048;-70
2023/05/22 02:26:24;;;;;;;21.63;18.58;;;;;;;;;;5031585;28;20513;-70
2023/05/22 02:28:50;;;;;;;25.98;19.30;;;;;;;;;;5032239;28;20049;-70
2023/05/22 02:31:17;;;;;;;26.55;18.92;;;;;;;;;;5032070;28;20045;-70
2023/05/22 02:33:43;;;;;;;23.33;18.67;;;;;;;;;;5014932;28;20051;-70
2023/05/22 02:36:11;;;;;;;22.52;18.48;;;;;;;;;;5014465;28;20053;-70
2023/05/22 02:38:38;;;;;;;23.10;18.33;;;;;;;;;;5030999;28;20128;-69
2023/05/22 02:41:04;;;;;;;23.05;19.20;;;;;;;;;;5030367;28;20075;-70
2023/05/22 02:43:30;;;;;;;22.50;19.00;;;;;;;;;;5014321;28;20057;-70
2023/05/22 02:45:56;;;;;;;24.05;20.05;;;;;;;;;;5013641;28;20383;-70
2023/05/22 02:48:22;;;;;;;25.92;20.20;;;;;;;;;;5032082;28;20052;-70
2023/05/22 02:50:48;;;;;;;24.60;20.17;;;;;;;;;;5013756;28;20048;-69
2023/05/22 02:53:15;;;;;;;28.65;21.20;;;;;;;;;;5031687;28;20041;-70
2023/05/22 02:55:42;;;;;;;29.27;20.83;;;;;;;;;;5038711;28;20141;-70
2023/05/22 02:58:10;;;;;;;25.63;20.75;;;;;;;;;;5052221;28;20037;-70
2023/05/22 03:00:36;;;;;;;24.08;20.95;;;;;;;;;;5036309;28;20049;-70
2023/05/22 03:03:03;;;;;;;23.75;20.48;;;;;;;;;;5016365;28;20042;-69
2023/05/22 03:05:30;;;;;;;25.73;22.10;;;;;;;;;;5010801;28;20060;-69
2023/05/22 03:07:56;;;;;;;30.20;21.85;;;;;;;;;;4994802;28;20514;-69
2023/05/22 03:10:23;;;;;;;25.70;21.08;;;;;;;;;;4994333;28;20049;-68
2023/05/22 03:12:50;;;;;;;26.33;21.20;;;;;;;;;;5044531;28;20572;-69
2023/05/22 03:15:17;;;;;;;26.23;22.00;;;;;;;;;;5034060;28;20056;-68
2023/05/22 03:17:43;;;;;;;25.98;22.23;;;;;;;;;;5041568;28;20037;-68
2023/05/22 03:20:09;;;;;;;28.17;22.00;;;;;;;;;;5031737;28;20405;-69
2023/05/22 03:22:35;;;;;;;25.17;21.42;;;;;;;;;;5031868;28;20041;-69
2023/05/22 03:25:02;;;;;;;27.70;23.73;;;;;;;;;;5013625;28;20083;-69
2023/05/22 03:27:28;;;;;;;26.90;23.02;;;;;;;;;;5023403;28;20053;-69
2023/05/22 03:29:54;;;;;;;27.48;21.73;;;;;;;;;;5031006;28;20050;-69
2023/05/22 03:32:20;;;;;;;27.20;22.02;;;;;;;;;;5031840;28;20084;-69
2023/05/22 03:34:46;;;;;;;27.23;22.52;;;;;;;;;;5029187;28;20076;-69
2023/05/22 03:37:12;;;;;;;25.80;21.80;;;;;;;;;;5024128;28;20042;-70
2023/05/22 03:39:38;;;;;;;26.95;22.42;;;;;;;;;;5012793;28;20119;-69
2023/05/22 03:42:05;;;;;;;26.02;22.80;;;;;;;;;;5030157;28;20441;-69
2023/05/22 03:44:31;;;;;;;26.85;22.52;;;;;;;;;;5013664;28;20048;-70
2023/05/22 03:46:57;;;;;;;28.80;21.80;;;;;;;;;;5013591;28;20482;-70
2023/05/22 03:49:23;;;;;;;27.10;22.38;;;;;;;;;;5031026;28;20125;-70
2023/05/22 03:51:49;;;;;;;26.90;22.23;;;;;;;;;;5031418;28;20038;-69
2023/05/22 03:54:15;;;;;;;27.30;22.20;;;;;;;;;;5031474;28;20398;-69
2023/05/22 03:56:42;;;;;;;33.22;23.08;;;;;;;;;;5044618;28;20037;-69
2023/05/22 03:59:08;;;;;;;26.63;23.00;;;;;;;;;;5049004;28;20516;-70
2023/05/22 04:01:37;;;;;;;29.33;22.58;;;;;;;;;;5029636;28;20038;-70
2023/05/22 04:04:04;;;;;;;27.88;22.92;;;;;;;;;;5031429;28;20456;-70
2023/05/22 04:06:31;;;;;;;27.35;23.45;;;;;;;;;;5014796;28;20068;-70
2023/05/22 04:08:57;;;;;;;29.23;23.95;;;;;;;;;;5035332;28;20053;-70
2023/05/22 04:11:24;;;;;;;29.20;24.05;;;;;;;;;;5033328;28;20460;-69
2023/05/22 04:13:50;;;;;;;29.67;23.13;;;;;;;;;;5052886;28;20481;-70
2023/05/22 04:16:17;;;;;;;26.17;22.40;;;;;;;;;;5036985;28;20059;-70
2023/05/22 04:18:43;;;;;;;26.40;21.52;;;;;;;;;;5037022;28;20099;-69
2023/05/22 04:21:09;;;;;;;26.52;21.98;;;;;;;;;;5054475;28;20059;-70
2023/05/22 04:23:37;;;;;;;26.52;22.17;;;;;;;;;;5054981;28;20044;-70
2023/05/22 04:26:03;;;;;;;29.08;22.45;;;;;;;;;;5038547;28;20053;-69
2023/05/22 04:28:33;;;;;;;27.60;21.95;;;;;;;;;;5034741;28;20047;-70
2023/05/22 04:30:59;;;;;;;25.05;21.80;;;;;;;;;;5034099;28;20383;-70
2023/05/22 04:33:25;;;;;;;25.63;21.77;;;;;;;;;;5016643;28;20046;-70
2023/05/22 04:35:51;;;;;;;26.25;21.15;;;;;;;;;;5034188;28;20048;-69
2023/05/22 04:38:17;;;;;;;27.05;20.90;;;;;;;;;;5034926;28;20428;-69
2023/05/22 04:40:44;;;;;;;28.73;21.73;;;;;;;;;;5030170;28;20494;-70
2023/05/22 04:43:11;;;;;;;27.67;20.63;;;;;;;;;;5044692;28;20044;-70
2023/05/22 04:45:38;;;;;;;27.15;20.08;;;;;;;;;;5033472;28;20402;-69
2023/05/22 04:48:04;;;;;;;28.33;20.60;;;;;;;;;;5034146;28;20064;-70
2023/05/22 04:50:31;;;;;;;25.75;19.58;;;;;;;;;;5033841;28;20829;-69
2023/05/22 04:52:58;;;;;;;23.52;18.95;;;;;;;;;;5034063;28;20407;-69
2023/05/22 04:55:24;;;;;;;26.17;20.08;;;;;;;;;;5033686;28;20065;-70
2023/05/22 04:57:51;;;;;;;25.45;18.88;;;;;;;;;;5034084;28;20033;-70
2023/05/22 05:00:18;;;;;;;28.98;19.40;;;;;;;;;;5033628;28;20046;-70
2023/05/22 05:02:44;;;;;;;23.52;19.38;;;;;;;;;;5031859;28;20049;-70
2023/05/22 05:05:10;;;;;;;23.70;18.48;;;;;;;;;;5033043;28;20135;-70
2023/05/22 05:07:37;;;;;;;22.25;19.20;;;;;;;;;;5034148;28;20057;-70
2023/05/22 05:10:03;;;;;;;23.73;18.77;;;;;;;;;;5033553;28;20037;-70
2023/05/22 05:12:29;;;;;;;23.65;17.95;;;;;;;;;;5034119;28;20418;-70
2023/05/22 05:14:55;;;;;;;26.20;18.63;;;;;;;;;;5033571;28;20037;-70
2023/05/22 05:17:21;;;;;;;22.30;17.13;;;;;;;;;;5032918;28;20095;-70
2023/05/22 05:19:47;;;;;;;22.23;17.63;;;;;;;;;;5032660;28;20037;-69
2023/05/22 05:22:13;;;;;;;23.52;17.30;;;;;;;;;;5032614;28;20478;-70
2023/05/22 05:24:39;;;;;;;22.20;16.58;;;;;;;;;;5032872;28;20110;-69
2023/05/22 05:27:05;;;;;;;22.27;16.35;;;;;;;;;;5015334;28;20084;-70
2023/05/22 05:29:31;;;;;;;22.35;16.48;;;;;;;;;;5031959;28;20077;-69
2023/05/22 05:31:57;;;;;;;21.38;15.60;;;;;;;;;;5033239;28;20430;-70
2023/05/22 05:34:23;;;;;;;22.75;16.55;;;;;;;;;;5015308;28;20060;-70
2023/05/22 05:36:51;;;;;;;20.17;15.65;;;;;;;;;;5032036;28;20045;-70
2023/05/22 05:39:17;;;;;;;20.25;14.95;;;;;;;;;;5032650;28;20103;-70
2023/05/22 05:41:43;;;;;;;20.77;15.10;;;;;;;;;;5033393;28;20053;-69
2023/05/22 05:44:09;;;;;;;28.83;16.13;;;;;;;;;;5031670;28;20152;-70
2023/05/22 05:46:35;;;;;;;22.42;15.52;;;;;;;;;;5033167;28;20231;-69
2023/05/22 05:49:08;;;;;;;22.35;15.90;;;;;;;;;;5034945;28;20044;-69
2023/05/22 05:51:35;;;;;;;22.48;14.82;;;;;;;;;;5052835;28;20057;-68
2023/05/22 05:54:01;;;;;;;20.45;15.68;;;;;;;;;;5041279;28;20068;-69
2023/05/22 05:56:27;;;;;;;24.35;15.43;;;;;;;;;;5043994;28;20080;-69
2023/05/22 05:58:53;;;;;;;21.45;15.25;;;;;;;;;;5052890;28;20064;-69
2023/05/22 06:01:19;;;;;;;20.25;14.93;;;;;;;;;;5034797;28;20049;-69
2023/05/22 06:03:45;;;;;;;21.15;14.50;;;;;;;;;;5031259;28;20489;-69
2023/05/22 06:06:11;;;;;;;17.98;14.52;;;;;;;;;;5014807;28;20063;-68
2023/05/22 06:08:37;;;;;;;22.25;15.05;;;;;;;;;;5014658;28;20050;-69
2023/05/22 06:11:03;;;;;;;25.52;15.55;;;;;;;;;;5030482;28;20257;-69
2023/05/22 06:13:29;;;;;;;22.42;15.23;;;;;;;;;;5046703;28;20045;-69
2023/05/22 06:15:56;;;;;;;21.13;15.32;;;;;;;;;;5040834;28;20131;-69
2023/05/22 06:18:24;;;;;;;20.20;14.30;;;;;;;;;;5013891;28;20041;-69
2023/05/22 06:20:50;;;;;;;19.42;13.65;;;;;;;;;;5032118;28;20128;-69
2023/05/22 06:23:16;;;;;;;20.17;13.60;;;;;;;;;;5032034;28;20443;-69
2023/05/22 06:25:42;;;;;;;20.38;13.70;;;;;;;;;;5030698;28;20041;-69
2023/05/22 06:28:09;;;;;;;21.92;14.20;;;;;;;;;;5031911;28;20050;-69
2023/05/22 06:30:35;;;;;;;21.00;13.68;;;;;;;;;;5031727;28;20041;-69
2023/05/22 06:33:02;;;;;;;21.30;12.05;;;;;;;;;;5014047;28;20482;-69
2023/05/22 06:35:29;;;;;;;20.88;11.82;;;;;;;;;;5032027;28;20107;-69
2023/05/22 06:37:55;;;;;;;24.70;11.82;;;;;;;;;;5030542;28;20398;-68
2023/05/22 06:40:21;;;;;;;21.52;11.88;;;;;;;;;;5030474;28;20049;-68
2023/05/22 06:42:47;;;;;;;17.92;11.63;;;;;;;;;;5027462;28;20371;-69
2023/05/22 06:45:13;;;;;;;25.10;11.77;;;;;;;;;;5014091;28;20406;-69
2023/05/22 06:47:39;;;;;;;19.58;11.63;;;;;;;;;;5032490;28;20045;-69
2023/05/22 06:50:05;;;;;;;21.75;11.35;;;;;;;;;;5031811;28;20048;-70
2023/05/22 06:52:32;;;;;;;18.75;10.60;;;;;;;;;;5032223;28;20457;-69
2023/05/22 06:55:04;;;;;;;18.75;10.45;;;;;;;;;;5031658;28;20071;-69
2023/05/22 06:57:33;;;;;;;19.25;9.20;;;;;;;;;;5031598;28;20049;-69
2023/05/22 07:00:00;;;;;;;18.30;9.65;;;;;;;;;;5039330;28;20037;-69
2023/05/22 07:02:26;;;;;;;18.73;8.82;;;;;;;;;;5039766;28;20052;-69
2023/05/22 07:04:52;;;;;;;16.02;8.45;;;;;;;;;;5044905;28;20064;-68
2023/05/22 07:07:19;;;;;;;14.63;8.02;;;;;;;;;;5030476;28;20110;-68
2023/05/22 07:09:45;;;;;;;15.77;8.38;;;;;;;;;;5014397;28;20455;-69
2023/05/22 07:12:12;;;;;;;18.00;7.85;;;;;;;;;;5031984;28;20055;-69
2023/05/22 07:14:38;;;;;;;17.85;8.20;;;;;;;;;;5014364;28;20115;-68
2023/05/22 07:17:04;;;;;;;15.77;7.82;;;;;;;;;;5018589;28;20445;-68
2023/05/22 07:19:30;;;;;;;14.52;7.65;;;;;;;;;;5030025;28;20052;-69
2023/05/22 07:21:57;;;;;;;19.65;7.25;;;;;;;;;;5031613;28;20037;-69
2023/05/22 07:24:23;;;;;;;17.30;7.45;;;;;;;;;;5050096;28;20494;-68
2023/05/22 07:26:49;;;;;;;14.65;7.40;;;;;;;;;;5028663;28;20048;-69
2023/05/22 07:29:15;;;;;;;17.38;8.45;;;;;;;;;;5030079;28;20056;-69
2023/05/22 07:31:41;;;;;;;18.42;7.43;;;;;;;;;;5031597;28;20041;-69
2023/05/22 07:34:08;;;;;;;18.38;8.02;;;;;;;;;;5031699;28;20053;-69
2023/05/22 07:36:34;;;;;;;13.55;6.88;;;;;;;;;;5030356;28;20046;-70
2023/05/22 07:39:00;;;;;;;16.00;7.25;;;;;;;;;;5044192;28;20118;-70
2023/05/22 07:41:26;;;;;;;15.07;7.38;;;;;;;;;;5031727;28;20037;-69
2023/05/22 07:43:52;;;;;;;13.63;7.13;;;;;;;;;;5043353;28;20114;-69
2023/05/22 07:46:18;;;;;;;15.85;6.88;;;;;;;;;;5051699;28;20052;-69
2023/05/22 07:48:44;;;;;;;16.02;7.60;;;;;;;;;;5054636;28;20094;-70
2023/05/22 07:51:12;;;;;;;15.82;7.45;;;;;;;;;;5054771;28;20057;-71
2023/05/22 07:53:38;;;;;;;15.90;7.82;;;;;;;;;;5042748;28;20052;-71
2023/05/22 07:56:04;;;;;;;17.50;7.72;;;;;;;;;;5035575;28;20417;-70
2023/05/22 07:58:30;;;;;;;13.13;7.07;;;;;;;;;;5017518;28;20041;-70
2023/05/22 08:00:57;;;;;;;13.98;6.95;;;;;;;;;;5034609;28;20044;-71
2023/05/22 08:03:23;;;;;;;14.20;7.25;;;;;;;;;;5035602;28;20049;-70
2023/05/22 08:05:49;;;;;;;13.27;7.30;;;;;;;;;;5034643;28;20061;-70
2023/05/22 08:08:15;;;;;;;17.55;7.47;;;;;;;;;;5032850;28;20045;-69
2023/05/22 08:10:41;;;;;;;19.70;8.23;;;;;;;;;;5035664;28;20051;-70
2023/05/22 08:13:07;;;;;;;14.73;7.82;;;;;;;;;;5035122;28;20147;-70
2023/05/22 08:15:33;;;;;;;15.80;7.85;;;;;;;;;;5016982;28;20089;-70
2023/05/22 08:17:59;;;;;;;14.52;8.23;;;;;;;;;;5034301;28;20052;-70
2023/05/22 08:20:25;;;;;;;17.55;8.48;;;;;;;;;;5034281;28;20378;-68
2023/05/22 08:22:53;;;;;;;20.63;8.23;;;;;;;;;;5017158;28;20383;-69
2023/05/22 08:25:19;;;;;;;14.63;7.93;;;;;;;;;;5033066;28;20478;-69
2023/05/22 08:27:45;;;;;;;18.02;8.30;;;;;;;;;;5016884;28;20132;-69
2023/05/22 08:30:11;;;;;;;16.65;7.95;;;;;;;;;;5016672;28;20144;-69
2023/05/22 08:32:37;;;;;;;15.75;8.35;;;;;;;;;;5034915;28;20052;-69
2023/05/22 08:35:03;;;;;;;16.10;8.60;;;;;;;;;;5032769;28;20380;-69
2023/05/22 08:37:30;;;;;;;14.40;8.48;;;;;;;;;;5034992;28;20099;-69
2023/05/22 08:39:56;;;;;;;16.75;8.60;;;;;;;;;;5016165;28;20049;-69
2023/05/22 08:42:22;;;;;;;22.83;8.88;;;;;;;;;;5032300;28;20127;-70
2023/05/22 08:44:48;;;;;;;17.05;8.93;;;;;;;;;;5034057;28;20124;-69
2023/05/22 08:47:15;;;;;;;14.05;8.70;;;;;;;;;;5033764;28;20053;-69
2023/05/22 08:49:41;;;;;;;16.33;9.00;;;;;;;;;;5032582;28;20502;-70
2023/05/22 08:52:12;;;;;;;15.98;9.15;;;;;;;;;;5032540;28;20466;-69
2023/05/22 08:54:41;;;;;;;17.13;9.27;;;;;;;;;;5034129;28;20120;-69
2023/05/22 08:57:08;;;;;;;15.15;8.90;;;;;;;;;;5015653;28;20045;-69
2023/05/22 08:59:40;;;;;;;15.75;9.65;;;;;;;;;;5033472;28;20056;-69
2023/05/22 09:02:06;;;;;;;17.30;9.30;;;;;;;;;;5033769;28;20049;-70
2023/05/22 09:04:32;;;;;;;19.73;9.27;;;;;;;;;;5033907;28;20045;-69
2023/05/22 09:07:04;;;;;;;16.05;8.98;;;;;;;;;;5034138;28;20120;-69
2023/05/22 09:09:30;;;;;;;17.33;10.07;;;;;;;;;;5033837;28;20068;-69
2023/05/22 09:11:56;;;;;;;17.45;9.80;;;;;;;;;;5015131;28;20109;-69
2023/05/22 09:14:24;;;;;;;15.90;9.13;;;;;;;;;;5033262;28;20123;-69
2023/05/22 09:16:51;;;;;;;14.98;9.38;;;;;;;;;;5032473;28;20046;-69
2023/05/22 09:19:17;;;;;;;18.42;9.38;;;;;;;;;;5033854;28;20041;-69
2023/05/22 09:21:44;;;;;;;16.17;8.80;;;;;;;;;;5033754;28;20133;-69
2023/05/22 09:24:10;;;;;;;17.67;9.35;;;;;;;;;;5033582;28;20081;-69
2023/05/22 09:26:39;;;;;;;19.10;9.23;;;;;;;;;;5033463;28;20057;-69
2023/05/22 09:29:06;;;;;;;14.82;8.90;;;;;;;;;;5033406;28;20160;-70
2023/05/22 09:31:37;;;;;;;17.83;9.05;;;;;;;;;;5033398;28;20041;-70
2023/05/22 09:34:06;;;;;;;23.70;9.57;;;;;;;;;;5033829;28;20045;-69
2023/05/22 09:36:33;;;;;;;15.35;9.27;;;;;;;;;;5033154;28;20089;-69
2023/05/22 09:39:03;;;;;;;21.05;9.40;;;;;;;;;;5031481;28;20095;-71
2023/05/22 09:41:29;;;;;;;20.13;9.02;;;;;;;;;;5014990;28;20041;-68
2023/05/22 09:43:55;;;;;;;17.05;8.90;;;;;;;;;;5033077;28;20043;-68
2023/05/22 09:46:21;;;;;;;15.48;8.43;;;;;;;;;;5031382;28;20084;-71
2023/05/22 09:48:53;;;;;;;14.40;8.20;;;;;;;;;;5031310;28;20408;-69
2023/05/22 09:51:22;;;;;;;15.82;8.15;;;;;;;;;;5015163;28;20390;-68
2023/05/22 09:53:50;;;;;;;15.68;9.25;;;;;;;;;;5032788;28;20068;-69
2023/05/22 09:56:18;;;;;;;19.48;9.48;;;;;;;;;;5032670;28;20055;-69
2023/05/22 09:58:46;;;;;;;17.08;8.90;;;;;;;;;;5032925;28;20096;-68
2023/05/22 10:01:15;;;;;;;16.92;9.68;;;;;;;;;;5032173;28;20094;-70
2023/05/22 10:03:43;;;;;;;18.50;9.48;;;;;;;;;;5032226;28;20061;-70
2023/05/22 10:06:11;;;;;;;21.23;10.80;;;;;;;;;;5032978;28;20053;-69
2023/05/22 10:08:41;;;;;;;18.70;10.05;;;;;;;;;;5031495;28;20041;-70
2023/05/22 10:11:08;;;;;;;17.85;9.60;;;;;;;;;;5032437;28;20049;-69
2023/05/22 10:13:36;;;;;;;17.48;9.43;;;;;;;;;;5032580;28;20140;-70
2023/05/22 10:16:06;;;;;;;20.70;9.90;;;;;;;;;;5032816;28;20143;-69
2023/05/22 10:18:32;;;;;;;15.57;9.45;;;;;;;;;;5030442;28;20048;-69
2023/05/22 10:20:59;;;;;;;18.85;10.35;;;;;;;;;;5029678;28;20571;-68
2023/05/22 10:23:26;;;;;;;17.00;9.18;;;;;;;;;;5032559;28;20065;-69
2023/05/22 10:25:52;;;;;;;18.10;9.75;;;;;;;;;;5032091;28;20049;-70
2023/05/22 10:28:24;;;;;;;16.70;10.07;;;;;;;;;;5032349;28;20465;-70
2023/05/22 10:30:59;;;;;;;17.73;9.43;;;;;;;;;;5030962;28;20056;-70
2023/05/22 10:33:29;;;;;;;23.90;10.57;;;;;;;;;;5032428;28;20046;-69
2023/05/22 10:36:03;;;;;;;18.70;10.57;;;;;;;;;;5013747;28;20049;-70
2023/05/22 10:38:29;;;;;;;25.52;11.20;;;;;;;;;;5029764;28;20421;-70
2023/05/22 10:40:55;;;;;;;20.13;10.50;;;;;;;;;;5028790;28;20042;-70
2023/05/22 10:43:22;;;;;;;18.38;10.27;;;;;;;;;;5031262;28;20045;-69
2023/05/22 10:45:48;;;;;;;19.02;10.27;;;;;;;;;;5012663;28;20069;-68
2023/05/22 10:48:15;;;;;;;23.27;10.55;;;;;;;;;;5029192;28;20049;-69
2023/05/22 10:50:51;;;;;;;20.58;10.18;;;;;;;;;;5011749;28;20061;-69
2023/05/22 10:53:27;;;;;;;18.42;10.40;;;;;;;;;;5031876;28;20111;-69
2023/05/22 10:55:57;;;;;;;25.70;11.25;;;;;;;;;;5030764;28;20505;-69
2023/05/22 10:58:27;;;;;;;17.90;10.38;;;;;;;;;;5030082;28;20049;-70
2023/05/22 11:01:13;;;;;;;20.23;10.00;;;;;;;;;;5030831;28;20034;-70
2023/05/22 11:03:52;;;;;;;23.60;10.40;;;;;;;;;;5011945;28;20061;-70
2023/05/22 11:06:37;;;;;;;17.38;9.40;;;;;;;;;;5012082;28;20073;-70
2023/05/22 11:09:23;;;;;;;15.95;8.40;;;;;;;;;;5012123;28;20514;-70
2023/05/22 11:12:09;;;;;;;14.43;8.60;;;;;;;;;;5013502;28;20120;-70
2023/05/22 11:14:36;;;;;;;17.73;9.23;;;;;;;;;;5031503;28;20408;-69
2023/05/22 11:17:02;;;;;;;17.13;9.35;;;;;;;;;;5031001;28;20056;-69
2023/05/22 11:19:28;;;;;;;17.35;9.10;;;;;;;;;;5035840;28;20045;-70
2023/05/22 11:21:59;;;;;;;16.80;8.70;;;;;;;;;;5034760;28;20049;-69
2023/05/22 11:24:25;;;;;;;16.38;9.38;;;;;;;;;;5034475;28;20048;-70
2023/05/22 11:27:02;;;;;;;14.63;8.80;;;;;;;;;;5034358;28;20474;-70
2023/05/22 11:29:28;;;;;;;14.30;8.70;;;;;;;;;;5033691;28;20080;-70
2023/05/22 11:31:56;;;;;;;13.30;8.40;;;;;;;;;;5034808;28;20041;-70
2023/05/22 11:34:23;;;;;;;13.48;9.13;;;;;;;;;;5034483;28;20103;-70
2023/05/22 11:36:49;;;;;;;12.68;8.90;;;;;;;;;;5034268;28;20045;-70
2023/05/22 11:39:15;;;;;;;16.23;9.38;;;;;;;;;;5035368;28;20520;-69
2023/05/22 11:41:41;;;;;;;13.02;7.50;;;;;;;;;;5034815;28;20037;-68
2023/05/22 11:44:08;;;;;;;15.18;7.85;;;;;;;;;;5034787;28;20049;-68
2023/05/22 11:46:34;;;;;;;14.07;8.38;;;;;;;;;;5016240;28;20045;-68
2023/05/22 11:49:00;;;;;;;13.82;8.23;;;;;;;;;;5035182;28;20497;-69
2023/05/22 11:51:27;;;;;;;18.63;11.10;;;;;;;;;;5035094;28;20033;-69
2023/05/22 11:53:54;;;;;;;11.93;8.20;;;;;;;;;;5033010;28;20056;-70
2023/05/22 11:56:23;;;;;;;11.07;8.18;;;;;;;;;;5032395;28;20057;-70
2023/05/22 11:58:50;;;;;;;9.30;7.82;;;;;;;;;;5032104;28;20486;-72
2023/05/22 12:01:16;;;;;;;13.23;7.90;;;;;;;;;;5031779;28;20092;-69
2023/05/22 12:03:42;;;;;;;11.18;8.50;;;;;;;;;;5032288;28;20155;-69
2023/05/22 12:06:09;;;;;;;11.60;7.80;;;;;;;;;;5031972;28;20053;-70
2023/05/22 12:08:35;;;;;;;11.43;7.60;;;;;;;;;;5014425;28;20136;-69
2023/05/22 12:11:05;;;;;;;9.43;7.07;;;;;;;;;;5031973;28;20135;-69
2023/05/22 12:13:31;;;;;;;10.85;7.63;;;;;;;;;;5031980;28;20057;-69
2023/05/22 12:16:01;;;;;;;12.43;7.40;;;;;;;;;;5032249;28;20060;-69
2023/05/22 12:18:27;;;;;;;9.80;6.72;;;;;;;;;;5029726;28;20052;-69
2023/05/22 12:20:56;;;;;;;9.52;7.07;;;;;;;;;;5030190;28;20467;-69
2023/05/22 12:23:22;;;;;;;9.43;6.82;;;;;;;;;;5031731;28;20041;-69
2023/05/22 12:25:56;;;;;;;13.00;7.30;;;;;;;;;;5013982;28;20060;-68
2023/05/22 12:28:22;;;;;;;11.60;7.30;;;;;;;;;;5035054;28;20057;-68
2023/05/22 12:30:52;;;;;;;13.50;7.88;;;;;;;;;;5034770;28;20045;-68
2023/05/22 12:33:19;;;;;;;15.18;7.60;;;;;;;;;;5035154;28;20041;-67
2023/05/22 12:35:45;;;;;;;12.60;7.65;;;;;;;;;;5034251;28;20454;-67
2023/05/22 12:38:12;;;;;;;10.25;7.88;;;;;;;;;;5034727;28;20050;-67
2023/05/22 12:40:38;;;;;;;12.07;8.52;;;;;;;;;;5016623;28;20432;-68
2023/05/22 12:43:04;;;;;;;12.82;9.52;;;;;;;;;;5033807;28;20053;-67
2023/05/22 12:45:30;;;;;;;12.48;9.02;;;;;;;;;;5016591;28;20053;-69
2023/05/22 12:47:56;;;;;;;16.38;10.90;;;;;;;;;;5034353;28;20132;-68
2023/05/22 12:50:22;;;;;;;15.68;10.38;;;;;;;;;;5033479;28;20195;-67
2023/05/22 12:52:48;;;;;;;19.13;10.07;;;;;;;;;;5033868;28;20045;-69
2023/05/22 12:55:14;;;;;;;19.65;10.23;;;;;;;;;;5034134;28;20050;-68
2023/05/22 12:57:40;;;;;;;17.83;10.10;;;;;;;;;;5033876;28;20521;-68
2023/05/22 13:00:07;;;;;;;18.73;10.23;;;;;;;;;;5033174;28;20042;-68
2023/05/22 13:02:33;;;;;;;16.60;10.13;;;;;;;;;;5033111;28;20124;-68
2023/05/22 13:04:59;;;;;;;21.33;9.90;;;;;;;;;;5034237;28;20061;-68
2023/05/22 13:07:25;;;;;;;19.35;10.70;;;;;;;;;;5034513;28;20059;-68
2023/05/22 13:09:51;;;;;;;20.42;10.45;;;;;;;;;;5034173;28;20081;-69
2023/05/22 13:12:17;;;;;;;19.95;10.10;;;;;;;;;;5016263;28;20077;-69
2023/05/22 13:14:44;;;;;;;17.73;10.50;;;;;;;;;;5034270;28;20437;-68
2023/05/22 13:17:10;;;;;;;16.83;9.80;;;;;;;;;;5033960;28;20052;-68
2023/05/22 13:19:37;;;;;;;20.38;10.18;;;;;;;;;;5033861;28;20041;-68
2023/05/22 13:22:03;;;;;;;18.40;11.10;;;;;;;;;;4999570;28;20041;-68
2023/05/22 13:24:29;;;;;;;19.35;10.45;;;;;;;;;;5033169;28;20084;-68
2023/05/22 13:26:55;;;;;;;18.33;10.38;;;;;;;;;;5015998;28;20056;-67
2023/05/22 13:29:21;;;;;;;17.70;11.25;;;;;;;;;;5016090;28;20238;-67
2023/05/22 13:31:47;;;;;;;18.42;10.38;;;;;;;;;;5015781;28;20045;-68
2023/05/22 13:34:13;;;;;;;18.23;10.85;;;;;;;;;;5032992;28;20041;-68
2023/05/22 13:36:39;;;;;;;17.23;10.90;;;;;;;;;;5051360;28;20045;-68
2023/05/22 13:39:05;;;;;;;21.77;12.10;;;;;;;;;;5046601;28;20037;-68
2023/05/22 13:41:31;;;;;;;23.92;12.00;;;;;;;;;;5015544;28;20507;-67
2023/05/22 13:43:57;;;;;;;19.75;11.88;;;;;;;;;;5030156;28;20044;-67
2023/05/22 13:46:24;;;;;;;18.42;11.50;;;;;;;;;;5032109;28;20056;-68
2023/05/22 13:48:50;;;;;;;21.55;12.27;;;;;;;;;;5032561;28;20080;-67
2023/05/22 13:51:16;;;;;;;16.63;11.10;;;;;;;;;;5015580;28;20049;-68
2023/05/22 13:53:42;;;;;;;17.40;12.18;;;;;;;;;;5033185;28;20145;-67
2023/05/22 13:56:08;;;;;;;17.67;12.05;;;;;;;;;;5030020;28;20050;-68
2023/05/22 13:58:34;;;;;;;16.95;11.23;;;;;;;;;;5032162;28;20045;-67
2023/05/22 14:01:00;;;;;;;16.05;10.90;;;;;;;;;;5033150;28;20108;-67
2023/05/22 14:03:26;;;;;;;15.60;10.43;;;;;;;;;;5032676;28;20052;-67
2023/05/22 14:05:52;;;;;;;19.08;10.80;;;;;;;;;;5032983;28;20064;-67
2023/05/22 14:08:18;;;;;;;15.68;11.00;;;;;;;;;;5032713;28;20132;-67
2023/05/22 14:10:44;;;;;;;17.17;11.10;;;;;;;;;;5032625;28;20041;-67
2023/05/22 14:13:10;;;;;;;20.27;11.40;;;;;;;;;;5032743;28;20134;-68
2023/05/22 14:15:36;;;;;;;16.60;11.07;;;;;;;;;;5032536;28;20096;-67
2023/05/22 14:18:02;;;;;;;17.85;10.98;;;;;;;;;;5033186;28;20045;-67
2023/05/22 14:20:28;;;;;;;15.77;10.73;;;;;;;;;;5032232;28;20057;-67